Commodore Clipper — C6QQ3 — position and weather

sailwx.info

Track history (hours):
 
Tides and Currents Weather Stations Pressure Air Temp Water Temp Dewpoint Dewpoint Depression Visibility Wind Speed Wind Dir Waves Ship Positions

Commodore Clipper

Operator: Condor Marine Services

Last reported at 2017-Aug-18 10:30 UTC. Time now 2017-Aug-18 10:51 UTC.
Position N 50°16' W 001°30'.

Length 130 m; draft 5.2 m.

Type: Ship. MMSI: 308094000.

Date/timePositionNaut miles runAvg speedWind from/ knotsBaromVisibWave heightAir tempDewpointWater temp
2017-Aug-18 10:30N 50°16' W 001°30'917.4
2017-Aug-18 10:00N 50°23' W 001°22'917.4
2017-Aug-18 09:30N 50°30' W 001°14'918.1
2017-Aug-18 09:00N 50°38' W 001°06'714.9
2017-Aug-18 08:31N 50°45' W 001°05'4 7.2
2017-Aug-18 08:00N 50°49' W 001°06'0 0.0
2017-Aug-18 07:30N 50°49' W 001°06'0 0.0
2017-Aug-18 07:00N 50°49' W 001°06'0 0.0
2017-Aug-18 06:30N 50°49' W 001°06'0 0.0
2017-Aug-18 06:00N 50°49' W 001°06'0 0.0
2017-Aug-18 05:30N 50°49' W 001°06'1 2.1
2017-Aug-18 05:01N 50°48' W 001°07'714.1
2017-Aug-18 04:31N 50°42' W 001°02'815.5
2017-Aug-18 04:00N 50°35' W 001°09'714.2
2017-Aug-18 03:30N 50°29' W 001°15'1014.5
2017-Aug-18 02:47N 50°21' W 001°26'413.9
2017-Aug-18 02:31N 50°18' W 001°30'815.6
2017-Aug-18 02:00N 50°11' W 001°35'918.1
2017-Aug-18 01:30N 50°03' W 001°43'917.9
2017-Aug-18 01:01N 49°56' W 001°50'917.7
2017-Aug-18 00:30N 49°48' W 001°58'19 2.0
2017-Aug-17 15:14N 49°32' W 002°13'1613.7
2017-Aug-17 14:05N 49°46' W 002°00'113.6
2017-Aug-17 14:00N 49°47' W 001°59'714.5
2017-Aug-17 13:30N 49°53' W 001°53'815.3
2017-Aug-17 13:00N 49°59' W 001°45'815.6
2017-Aug-17 12:31N 50°05' W 001°38'816.3
2017-Aug-17 12:00N 50°12' W 001°33'1316.6
2017-Aug-17 11:12N 50°24' W 001°21'316.8
2017-Aug-17 11:00N 50°26' W 001°18'817.1
2017-Aug-17 10:30N 50°33' W 001°11'917.6
2017-Aug-17 10:00N 50°41' W 001°03'714.0
2017-Aug-17 09:30N 50°47' W 001°07'2 3.2
2017-Aug-17 09:00N 50°49' W 001°06'0 0.0
2017-Aug-17 08:30N 50°49' W 001°06'0 0.0
2017-Aug-17 08:00N 50°49' W 001°06'0 0.0
2017-Aug-17 07:30N 50°49' W 001°06'0 0.0
2017-Aug-17 07:00N 50°49' W 001°06'0 0.0
2017-Aug-17 06:31N 50°49' W 001°06'2 3.4
2017-Aug-17 06:01N 50°47' W 001°06'714.1
2017-Aug-17 05:31N 50°40' W 001°04'815.7
2017-Aug-17 05:00N 50°34' W 001°10'714.3
2017-Aug-17 04:30N 50°28' W 001°17'914.3
2017-Aug-17 03:51N 50°20' W 001°24'514.4
2017-Aug-17 03:31N 50°15' W 001°28'714.2
2017-Aug-17 03:01N 50°09' W 001°34'815.7
2017-Aug-17 02:30N 50°03' W 001°41'1019.4
2017-Aug-17 02:01N 49°55' W 001°49'1020.0
2017-Aug-17 01:30N 49°47' W 001°59'35 5.9
2017-Aug-16 19:39N 49°16' W 002°22'617.4
2017-Aug-16 19:19N 49°21' W 002°26'617.5
2017-Aug-16 19:00N 49°26' W 002°30'2 1.3
2017-Aug-16 17:44N 49°27' W 002°32'0 0.1
2017-Aug-16 17:30N 49°27' W 002°32'5 9.7
2017-Aug-16 17:00N 49°27' W 002°24'918.0
2017-Aug-16 16:30N 49°32' W 002°13'816.5
2017-Aug-16 16:00N 49°39' W 002°06'815.6
2017-Aug-16 15:28N 49°47' W 001°60'714.8
2017-Aug-16 15:00N 49°52' W 001°54'815.2
2017-Aug-16 14:31N 49°58' W 001°45'815.4
2017-Aug-16 14:00N 50°04' W 001°38'815.7
2017-Aug-16 13:30N 50°10' W 001°32'815.9
2017-Aug-16 13:00N 50°17' W 001°24'816.3
2017-Aug-16 12:30N 50°24' W 001°18'816.3
2017-Aug-16 12:00N 50°31' W 001°11'816.4
2017-Aug-16 11:30N 50°37' W 001°03'714.3
2017-Aug-16 11:00N 50°44' W 001°04'5 9.5
2017-Aug-16 10:31N 50°49' W 001°06'0 0.6
2017-Aug-16 10:00N 50°49' W 001°06'0 0.0
2017-Aug-16 09:30N 50°49' W 001°06'0 0.0
2017-Aug-16 09:00N 50°49' W 001°06'0 0.0
2017-Aug-16 08:30N 50°49' W 001°06'0 0.0
2017-Aug-16 08:00N 50°49' W 001°06'3 5.0
2017-Aug-16 07:31N 50°46' W 001°06'4 7.2
2017-Aug-16 07:00N 50°43' W 001°03'611.7
2017-Aug-16 06:30N 50°38' W 001°07'913.9
2017-Aug-16 05:51N 50°31' W 001°17'412.7
2017-Aug-16 05:30N 50°28' W 001°22'613.0
2017-Aug-16 05:01N 50°23' W 001°28'713.2
2017-Aug-16 04:31N 50°17' W 001°33'713.2
2017-Aug-16 04:01N 50°11' W 001°37'612.9
2017-Aug-16 03:31N 50°05' W 001°41'612.8
2017-Aug-16 03:01N 49°60' W 001°46'713.1
2017-Aug-16 02:30N 49°54' W 001°52'714.0
2017-Aug-16 02:00N 49°48' W 001°58'2114.5
2017-Aug-16 00:31N 49°29' W 002°13'215.4
2017-Aug-16 00:23N 49°27' W 002°14'719.4
2017-Aug-16 00:01N 49°20' W 002°18'10 2.7
2017-Aug-15 20:11N 49°10' W 002°16'418.2
2017-Aug-15 19:57N 49°13' W 002°20'918.5
2017-Aug-15 19:28N 49°21' W 002°26'715.4
2017-Aug-15 19:01N 49°27' W 002°32'0 0.1
2017-Aug-15 17:35N 49°27' W 002°31'1314.6
2017-Aug-15 16:40N 49°32' W 002°12'1517.9
2017-Aug-15 15:51N 49°46' W 002°02'616.5
2017-Aug-15 15:31N 49°50' W 001°56'816.3
2017-Aug-15 15:00N 49°56' W 001°49'815.8
2017-Aug-15 14:30N 50°03' W 001°42'815.5
2017-Aug-15 14:01N 50°09' W 001°35'815.6
2017-Aug-15 13:31N 50°16' W 001°28'915.5
2017-Aug-15 12:55N 50°23' W 001°19'615.3
2017-Aug-15 12:30N 50°28' W 001°14'715.1
2017-Aug-15 12:00N 50°35' W 001°07'815.2
2017-Aug-15 11:31N 50°41' W 001°00'815.2
2017-Aug-15 11:00N 50°47' W 001°07'2 3.1
2017-Aug-15 10:30N 50°49' W 001°06'0 0.0
2017-Aug-15 10:00N 50°49' W 001°06'0 0.0
2017-Aug-15 09:30N 50°49' W 001°06'0 0.0
2017-Aug-15 09:00N 50°49' W 001°06'0 0.0
2017-Aug-15 08:30N 50°49' W 001°06'1 1.7
2017-Aug-15 08:01N 50°48' W 001°07'510.6
2017-Aug-15 07:30N 50°44' W 001°03'714.1
2017-Aug-15 07:00N 50°37' W 001°07'713.5
2017-Aug-15 06:30N 50°31' W 001°13'510.5
2017-Aug-15 06:00N 50°27' W 001°18'510.2
2017-Aug-15 05:30N 50°23' W 001°22'510.5
2017-Aug-15 05:00N 50°19' W 001°27'815.1
2017-Aug-15 04:30N 50°12' W 001°33'816.8
2017-Aug-15 04:00N 50°05' W 001°41'917.2
2017-Aug-15 03:30N 49°58' W 001°48'917.7
2017-Aug-15 03:00N 49°51' W 001°55'1918.0
2017-Aug-15 01:59N 49°34' W 002°08'1017.7
2017-Aug-15 01:23N 49°28' W 002°21'612.9
2017-Aug-15 00:57N 49°27' W 002°30'22 3.7
2017-Aug-14 18:49N 49°11' W 002°07'711.0
2017-Aug-14 18:10N 49°10' W 002°18'319.2
2017-Aug-14 18:00N 49°13' W 002°20'2 3.0
2017-Aug-14 17:22N 49°15' W 002°22'4 6.1
2017-Aug-14 16:38N 49°19' W 002°19'1212.2
2017-Aug-14 15:39N 49°30' W 002°12'311.7
2017-Aug-14 15:22N 49°33' W 002°10'911.3
2017-Aug-14 14:33N 49°42' W 002°05'010.5
2017-Aug-14 14:30N 49°42' W 002°05'510.1
2017-Aug-14 14:00N 49°46' W 002°00'5 9.5
2017-Aug-14 13:30N 49°49' W 001°54'5 9.3
2017-Aug-14 13:01N 49°52' W 001°49'5 9.8
2017-Aug-14 12:31N 49°56' W 001°44'510.0
2017-Aug-14 12:01N 49°60' W 001°40'714.4
2017-Aug-14 11:30N 50°06' W 001°35'815.9
2017-Aug-14 11:00N 50°13' W 001°29'816.1
2017-Aug-14 10:30N 50°21' W 001°23'816.3
2017-Aug-14 10:00N 50°27' W 001°16'816.4
2017-Aug-14 09:31N 50°34' W 001°08'816.5
2017-Aug-14 09:01N 50°40' W 001°01'714.3
2017-Aug-14 08:30N 50°47' W 001°06'2 4.2
2017-Aug-14 08:00N 50°49' W 001°06'0 0.0
2017-Aug-14 07:30N 50°49' W 001°06'0 0.0
2017-Aug-14 07:00N 50°49' W 001°06'0 0.0
2017-Aug-14 06:30N 50°49' W 001°06'0 0.0
2017-Aug-14 06:00N 50°49' W 001°06'0 0.0
2017-Aug-14 05:30N 50°49' W 001°06'1 2.8
2017-Aug-14 05:00N 50°48' W 001°07'714.2
2017-Aug-14 04:30N 50°41' W 001°03'815.5
2017-Aug-14 04:00N 50°35' W 001°10'713.7
2017-Aug-14 03:30N 50°29' W 001°17'612.1
2017-Aug-14 03:00N 50°24' W 001°20'612.6
2017-Aug-14 02:30N 50°18' W 001°24'613.0
2017-Aug-14 02:00N 50°13' W 001°30'612.8
2017-Aug-14 01:30N 50°08' W 001°37'713.0
2017-Aug-14 01:00N 50°03' W 001°44'713.2
2017-Aug-14 00:30N 49°58' W 001°50'713.4
2017-Aug-14 00:00N 49°52' W 001°55'1015.3
2017-Aug-13 23:21N 49°43' W 002°02'615.6
2017-Aug-13 22:58N 49°38' W 002°06'713.9
2017-Aug-13 22:27N 49°31' W 002°11'613.4
2017-Aug-13 22:01N 49°26' W 002°15'815.9
2017-Aug-13 21:31N 49°18' W 002°19'816.3
2017-Aug-13 21:01N 49°10' W 002°18'713.8
2017-Aug-13 20:30N 49°11' W 002°07'0 0.0
2017-Aug-13 19:31N 49°11' W 002°07'0 0.0
2017-Aug-13 19:30N 49°11' W 002°07'0 0.0
2017-Aug-13 18:24N 49°11' W 002°07'2 4.3
2017-Aug-13 17:51N 49°10' W 002°10'716.0
2017-Aug-13 17:23N 49°11' W 002°21'716.0
2017-Aug-13 16:57N 49°17' W 002°26'716.5
2017-Aug-13 16:30N 49°24' W 002°29'3 2.9
2017-Aug-13 15:19N 49°27' W 002°32'0 0.2
2017-Aug-13 15:00N 49°27' W 002°32'610.6
2017-Aug-13 14:29N 49°28' W 002°23'918.4
2017-Aug-13 14:00N 49°33' W 002°12'817.1
2017-Aug-13 13:31N 49°40' W 002°06'816.2
2017-Aug-13 13:01N 49°47' W 001°60'815.1
2017-Aug-13 12:31N 49°53' W 001°52'815.3
2017-Aug-13 12:00N 49°59' W 001°45'815.7
2017-Aug-13 11:30N 50°07' W 001°40'815.4
2017-Aug-13 11:01N 50°13' W 001°33'815.4
2017-Aug-13 10:31N 50°18' W 001°25'815.8
2017-Aug-13 10:00N 50°24' W 001°16'816.3
2017-Aug-13 09:30N 50°31' W 001°10'816.4
2017-Aug-13 09:00N 50°38' W 001°02'714.8
2017-Aug-13 08:30N 50°45' W 001°05'4 8.0
2017-Aug-13 08:00N 50°49' W 001°06'0 0.0
2017-Aug-13 07:30N 50°49' W 001°06'0 0.0
2017-Aug-13 07:00N 50°49' W 001°06'0 0.0
2017-Aug-13 06:30N 50°49' W 001°06'0 0.0
2017-Aug-13 06:01N 50°49' W 001°06'0 0.0
2017-Aug-13 05:30N 50°49' W 001°06'2 3.3
2017-Aug-13 05:00N 50°47' W 001°07'713.5
2017-Aug-13 04:30N 50°41' W 001°03'714.7
2017-Aug-13 04:01N 50°35' W 001°10'712.0
2017-Aug-13 03:25N 50°29' W 001°17'910.4
2017-Aug-13 02:36N 50°22' W 001°24'111.2
2017-Aug-13 02:29N 50°21' W 001°26'611.4
2017-Aug-13 01:59N 50°17' W 001°31'612.6
2017-Aug-13 01:30N 50°12' W 001°36'713.4
2017-Aug-13 01:00N 50°06' W 001°42'713.5
2017-Aug-13 00:31N 50°01' W 001°48'612.6
2017-Aug-13 00:01N 49°55' W 001°52'713.1
2017-Aug-12 23:30N 49°49' W 001°57'20 2.2
2017-Aug-12 14:25N 49°33' W 002°13'1518.4
2017-Aug-12 13:35N 49°46' W 002°02'117.4
2017-Aug-12 13:30N 49°47' W 002°01'816.9
2017-Aug-12 13:01N 49°55' W 001°55'815.9
2017-Aug-12 12:30N 50°02' W 001°49'815.1
2017-Aug-12 12:00N 50°07' W 001°41'714.6
2017-Aug-12 11:31N 50°12' W 001°33'814.9
2017-Aug-12 10:58N 50°19' W 001°25'714.9
2017-Aug-12 10:30N 50°24' W 001°18'814.9
2017-Aug-12 10:00N 50°30' W 001°11'714.8
2017-Aug-12 09:30N 50°36' W 001°04'714.5
2017-Aug-12 09:00N 50°43' W 001°02'612.3
2017-Aug-12 08:30N 50°49' W 001°07'1 1.1
2017-Aug-12 08:00N 50°49' W 001°06'0 0.0
2017-Aug-12 07:31N 50°49' W 001°06'0 0.0
2017-Aug-12 07:00N 50°49' W 001°06'0 0.0
2017-Aug-12 06:30N 50°49' W 001°06'0 0.0
2017-Aug-12 06:00N 50°49' W 001°06'0 0.0
2017-Aug-12 05:30N 50°49' W 001°06'2 3.3
2017-Aug-12 05:01N 50°47' W 001°07'713.2
2017-Aug-12 04:30N 50°41' W 001°03'714.6
2017-Aug-12 04:01N 50°35' W 001°09'4 8.9
2017-Aug-12 03:31N 50°31' W 001°13'13 9.2
2017-Aug-12 02:08N 50°21' W 001°24'111.4
2017-Aug-12 02:01N 50°20' W 001°25'612.9
2017-Aug-12 01:30N 50°14' W 001°29'713.7
2017-Aug-12 01:00N 50°08' W 001°35'714.8
2017-Aug-12 00:31N 50°02' W 001°42'918.9
2017-Aug-12 00:01N 49°54' W 001°50'1020.1
2017-Aug-11 23:30N 49°46' W 001°59'1320.3
2017-Aug-11 22:51N 49°34' W 002°08'1619.9
2017-Aug-11 22:03N 49°19' W 002°18'519.2
2017-Aug-11 21:48N 49°15' W 002°20'715.9
2017-Aug-11 21:20N 49°10' W 002°13'1 0.2
2017-Aug-11 18:20N 49°10' W 002°13'717.9
2017-Aug-11 17:58N 49°14' W 002°21'13 4.4
2017-Aug-11 15:05N 49°26' W 002°29'216.7
2017-Aug-11 14:59N 49°26' W 002°27'2718.5
2017-Aug-11 13:30N 49°48' W 002°01'917.4
2017-Aug-11 13:01N 49°55' W 001°53'816.5
2017-Aug-11 12:31N 50°01' W 001°45'815.6
2017-Aug-11 12:00N 50°06' W 001°36'815.0
2017-Aug-11 11:30N 50°12' W 001°28'815.6
2017-Aug-11 11:00N 50°18' W 001°22'1015.3
2017-Aug-11 10:21N 50°27' W 001°13'515.0
2017-Aug-11 10:00N 50°31' W 001°09'714.7
2017-Aug-11 09:30N 50°37' W 001°03'714.2
2017-Aug-11 09:01N 50°44' W 001°04'4 8.8
2017-Aug-11 08:31N 50°49' W 001°06'0 0.1
2017-Aug-11 08:01N 50°49' W 001°06'0 0.0
2017-Aug-11 07:31N 50°49' W 001°06'0 0.0
2017-Aug-11 07:00N 50°49' W 001°06'0 0.0
2017-Aug-11 06:30N 50°49' W 001°06'0 0.0
2017-Aug-11 06:01N 50°49' W 001°06'0 0.0
2017-Aug-11 05:30N 50°49' W 001°06'2 3.2
2017-Aug-11 05:01N 50°47' W 001°07'713.3
2017-Aug-11 04:31N 50°41' W 001°03'714.3
2017-Aug-11 04:00N 50°35' W 001°09'612.0
2017-Aug-11 03:30N 50°30' W 001°14'510.8
2017-Aug-11 03:00N 50°26' W 001°19'510.3
2017-Aug-11 02:30N 50°22' W 001°24'510.3
2017-Aug-11 02:00N 50°17' W 001°28'611.7
2017-Aug-11 01:30N 50°12' W 001°33'612.5
2017-Aug-11 01:01N 50°07' W 001°38'815.3
2017-Aug-11 00:31N 50°00' W 001°44'917.7
2017-Aug-11 00:01N 49°53' W 001°51'3819.0
2017-Aug-10 21:59N 49°19' W 002°19'11 2.3
2017-Aug-10 17:24N 49°26' W 002°30'1 0.8
2017-Aug-10 15:37N 49°27' W 002°32'0 2.4
2017-Aug-10 15:30N 49°27' W 002°31'2 4.7
2017-Aug-10 15:00N 49°26' W 002°29'2718.7
2017-Aug-10 13:35N 49°46' W 002°02'219.9
2017-Aug-10 13:31N 49°47' W 002°01'1019.0
2017-Aug-10 13:00N 49°55' W 001°53'918.0
2017-Aug-10 12:30N 50°02' W 001°45'917.5
2017-Aug-10 12:00N 50°10' W 001°38'1816.5
2017-Aug-10 10:55N 50°24' W 001°20'716.0
2017-Aug-10 10:30N 50°29' W 001°15'815.3
2017-Aug-10 10:00N 50°36' W 001°08'715.0
2017-Aug-10 09:31N 50°43' W 001°03'612.8
2017-Aug-10 09:00N 50°49' W 001°06'0 1.0
2017-Aug-10 08:31N 50°49' W 001°06'0 0.0
2017-Aug-10 08:00N 50°49' W 001°06'0 0.0
2017-Aug-10 07:31N 50°49' W 001°06'0 0.0
2017-Aug-10 07:00N 50°49' W 001°06'0 0.0
2017-Aug-10 06:31N 50°49' W 001°06'0 0.0
2017-Aug-10 06:01N 50°49' W 001°06'0 0.0
2017-Aug-10 05:30N 50°49' W 001°06'2 3.9
2017-Aug-10 05:01N 50°47' W 001°06'612.9
2017-Aug-10 04:31N 50°41' W 001°01'713.1
2017-Aug-10 04:00N 50°36' W 001°05'5 9.3
2017-Aug-10 03:30N 50°32' W 001°10'5 8.3
2017-Aug-10 02:56N 50°28' W 001°15'4 8.5
2017-Aug-10 02:26N 50°26' W 001°21'5 9.1
2017-Aug-10 01:53N 50°22' W 001°24'410.1
2017-Aug-10 01:30N 50°18' W 001°25'713.0
2017-Aug-10 01:00N 50°12' W 001°30'815.4
2017-Aug-10 00:30N 50°05' W 001°34'815.8
2017-Aug-10 00:01N 49°59' W 001°42'816.3
2017-Aug-09 23:30N 49°53' W 001°50'917.5
2017-Aug-09 23:01N 49°46' W 001°59'1417.6
2017-Aug-09 22:13N 49°34' W 002°08'4 0.5
2017-Aug-09 13:56N 49°32' W 002°14'1520.5
2017-Aug-09 13:12N 49°46' W 002°04'419.2
2017-Aug-09 13:00N 49°49' W 002°03'714.4
2017-Aug-09 12:31N 49°54' W 001°55'918.0
2017-Aug-09 12:00N 50°01' W 001°46'917.5
2017-Aug-09 11:31N 50°09' W 001°39'2316.6
2017-Aug-09 10:08N 50°27' W 001°17'615.7
2017-Aug-09 09:46N 50°32' W 001°12'415.4
2017-Aug-09 09:30N 50°35' W 001°09'815.4
2017-Aug-09 09:01N 50°42' W 001°03'714.2
2017-Aug-09 08:31N 50°48' W 001°07'1 1.9
2017-Aug-09 08:01N 50°49' W 001°06'0 0.0
2017-Aug-09 07:31N 50°49' W 001°06'0 0.0
2017-Aug-09 07:01N 50°49' W 001°06'0 0.0
2017-Aug-09 06:31N 50°49' W 001°06'0 0.0
2017-Aug-09 06:01N 50°49' W 001°06'0 0.0
2017-Aug-09 05:30N 50°49' W 001°06'2 3.7
2017-Aug-09 05:01N 50°47' W 001°06'713.2
2017-Aug-09 04:30N 50°41' W 001°01'714.8
2017-Aug-09 04:00N 50°35' W 001°08'611.0
2017-Aug-09 03:29N 50°30' W 001°12'1110.6
2017-Aug-09 02:26N 50°22' W 001°23'510.5
2017-Aug-09 02:00N 50°18' W 001°26'815.0
2017-Aug-09 01:30N 50°11' W 001°32'815.5
2017-Aug-09 01:00N 50°05' W 001°39'815.9
2017-Aug-09 00:30N 49°58' W 001°46'816.5
2017-Aug-09 00:00N 49°51' W 001°52'21 2.0
2017-Aug-08 13:38N 49°34' W 002°10'1520.4
2017-Aug-08 12:54N 49°48' W 002°02'719.0
2017-Aug-08 12:30N 49°53' W 001°54'918.3
2017-Aug-08 12:00N 50°01' W 001°46'917.8
2017-Aug-08 11:30N 50°08' W 001°38'  
Track history (hours):
 
Tides and Currents Weather Stations Pressure Air Temp Water Temp Dewpoint Dewpoint Depression Visibility Wind Speed Wind Dir Waves Ship Positions

Commodore Clipper

Operator: Condor Marine Services

Last reported at 2017-Aug-18 10:30 UTC. Time now 2017-Aug-18 10:51 UTC.
Position N 50°16' W 001°30'.

Length 130 m; draft 5.2 m.

Type: Ship. MMSI: 308094000.

Date/timePositionNaut miles runAvg speedWind from/ knotsBaromVisibWave heightAir tempDewpointWater temp
2017-Aug-18 10:30N 50°16' W 001°30'917.4
2017-Aug-18 10:00N 50°23' W 001°22'917.4
2017-Aug-18 09:30N 50°30' W 001°14'918.1
2017-Aug-18 09:00N 50°38' W 001°06'714.9
2017-Aug-18 08:31N 50°45' W 001°05'4 7.2
2017-Aug-18 08:00N 50°49' W 001°06'0 0.0
2017-Aug-18 07:30N 50°49' W 001°06'0 0.0
2017-Aug-18 07:00N 50°49' W 001°06'0 0.0
2017-Aug-18 06:30N 50°49' W 001°06'0 0.0
2017-Aug-18 06:00N 50°49' W 001°06'0 0.0
2017-Aug-18 05:30N 50°49' W 001°06'1 2.1
2017-Aug-18 05:01N 50°48' W 001°07'714.1
2017-Aug-18 04:31N 50°42' W 001°02'815.5
2017-Aug-18 04:00N 50°35' W 001°09'714.2
2017-Aug-18 03:30N 50°29' W 001°15'1014.5
2017-Aug-18 02:47N 50°21' W 001°26'413.9
2017-Aug-18 02:31N 50°18' W 001°30'815.6
2017-Aug-18 02:00N 50°11' W 001°35'918.1
2017-Aug-18 01:30N 50°03' W 001°43'917.9
2017-Aug-18 01:01N 49°56' W 001°50'917.7
2017-Aug-18 00:30N 49°48' W 001°58'19 2.0
2017-Aug-17 15:14N 49°32' W 002°13'1613.7
2017-Aug-17 14:05N 49°46' W 002°00'113.6
2017-Aug-17 14:00N 49°47' W 001°59'714.5
2017-Aug-17 13:30N 49°53' W 001°53'815.3
2017-Aug-17 13:00N 49°59' W 001°45'815.6
2017-Aug-17 12:31N 50°05' W 001°38'816.3
2017-Aug-17 12:00N 50°12' W 001°33'1316.6
2017-Aug-17 11:12N 50°24' W 001°21'316.8
2017-Aug-17 11:00N 50°26' W 001°18'817.1
2017-Aug-17 10:30N 50°33' W 001°11'917.6
2017-Aug-17 10:00N 50°41' W 001°03'714.0
2017-Aug-17 09:30N 50°47' W 001°07'2 3.2
2017-Aug-17 09:00N 50°49' W 001°06'0 0.0
2017-Aug-17 08:30N 50°49' W 001°06'0 0.0
2017-Aug-17 08:00N 50°49' W 001°06'0 0.0
2017-Aug-17 07:30N 50°49' W 001°06'0 0.0
2017-Aug-17 07:00N 50°49' W 001°06'0 0.0
2017-Aug-17 06:31N 50°49' W 001°06'2 3.4
2017-Aug-17 06:01N 50°47' W 001°06'714.1
2017-Aug-17 05:31N 50°40' W 001°04'815.7
2017-Aug-17 05:00N 50°34' W 001°10'714.3
2017-Aug-17 04:30N 50°28' W 001°17'914.3
2017-Aug-17 03:51N 50°20' W 001°24'514.4
2017-Aug-17 03:31N 50°15' W 001°28'714.2
2017-Aug-17 03:01N 50°09' W 001°34'815.7
2017-Aug-17 02:30N 50°03' W 001°41'1019.4
2017-Aug-17 02:01N 49°55' W 001°49'1020.0
2017-Aug-17 01:30N 49°47' W 001°59'35 5.9
2017-Aug-16 19:39N 49°16' W 002°22'617.4
2017-Aug-16 19:19N 49°21' W 002°26'617.5
2017-Aug-16 19:00N 49°26' W 002°30'2 1.3
2017-Aug-16 17:44N 49°27' W 002°32'0 0.1
2017-Aug-16 17:30N 49°27' W 002°32'5 9.7
2017-Aug-16 17:00N 49°27' W 002°24'918.0
2017-Aug-16 16:30N 49°32' W 002°13'816.5
2017-Aug-16 16:00N 49°39' W 002°06'815.6
2017-Aug-16 15:28N 49°47' W 001°60'714.8
2017-Aug-16 15:00N 49°52' W 001°54'815.2
2017-Aug-16 14:31N 49°58' W 001°45'815.4
2017-Aug-16 14:00N 50°04' W 001°38'815.7
2017-Aug-16 13:30N 50°10' W 001°32'815.9
2017-Aug-16 13:00N 50°17' W 001°24'816.3
2017-Aug-16 12:30N 50°24' W 001°18'816.3
2017-Aug-16 12:00N 50°31' W 001°11'816.4
2017-Aug-16 11:30N 50°37' W 001°03'714.3
2017-Aug-16 11:00N 50°44' W 001°04'5 9.5
2017-Aug-16 10:31N 50°49' W 001°06'0 0.6
2017-Aug-16 10:00N 50°49' W 001°06'0 0.0
2017-Aug-16 09:30N 50°49' W 001°06'0 0.0
2017-Aug-16 09:00N 50°49' W 001°06'0 0.0
2017-Aug-16 08:30N 50°49' W 001°06'0 0.0
2017-Aug-16 08:00N 50°49' W 001°06'3 5.0
2017-Aug-16 07:31N 50°46' W 001°06'4 7.2
2017-Aug-16 07:00N 50°43' W 001°03'611.7
2017-Aug-16 06:30N 50°38' W 001°07'913.9
2017-Aug-16 05:51N 50°31' W 001°17'412.7
2017-Aug-16 05:30N 50°28' W 001°22'613.0
2017-Aug-16 05:01N 50°23' W 001°28'713.2
2017-Aug-16 04:31N 50°17' W 001°33'713.2
2017-Aug-16 04:01N 50°11' W 001°37'612.9
2017-Aug-16 03:31N 50°05' W 001°41'612.8
2017-Aug-16 03:01N 49°60' W 001°46'713.1
2017-Aug-16 02:30N 49°54' W 001°52'714.0
2017-Aug-16 02:00N 49°48' W 001°58'2114.5
2017-Aug-16 00:31N 49°29' W 002°13'215.4
2017-Aug-16 00:23N 49°27' W 002°14'719.4
2017-Aug-16 00:01N 49°20' W 002°18'10 2.7
2017-Aug-15 20:11N 49°10' W 002°16'418.2
2017-Aug-15 19:57N 49°13' W 002°20'918.5
2017-Aug-15 19:28N 49°21' W 002°26'715.4
2017-Aug-15 19:01N 49°27' W 002°32'0 0.1
2017-Aug-15 17:35N 49°27' W 002°31'1314.6
2017-Aug-15 16:40N 49°32' W 002°12'1517.9
2017-Aug-15 15:51N 49°46' W 002°02'616.5
2017-Aug-15 15:31N 49°50' W 001°56'816.3
2017-Aug-15 15:00N 49°56' W 001°49'815.8
2017-Aug-15 14:30N 50°03' W 001°42'815.5
2017-Aug-15 14:01N 50°09' W 001°35'815.6
2017-Aug-15 13:31N 50°16' W 001°28'915.5
2017-Aug-15 12:55N 50°23' W 001°19'615.3
2017-Aug-15 12:30N 50°28' W 001°14'715.1
2017-Aug-15 12:00N 50°35' W 001°07'815.2
2017-Aug-15 11:31N 50°41' W 001°00'815.2
2017-Aug-15 11:00N 50°47' W 001°07'2 3.1
2017-Aug-15 10:30N 50°49' W 001°06'0 0.0
2017-Aug-15 10:00N 50°49' W 001°06'0 0.0
2017-Aug-15 09:30N 50°49' W 001°06'0 0.0
2017-Aug-15 09:00N 50°49' W 001°06'0 0.0
2017-Aug-15 08:30N 50°49' W 001°06'1 1.7
2017-Aug-15 08:01N 50°48' W 001°07'510.6
2017-Aug-15 07:30N 50°44' W 001°03'714.1
2017-Aug-15 07:00N 50°37' W 001°07'713.5
2017-Aug-15 06:30N 50°31' W 001°13'510.5
2017-Aug-15 06:00N 50°27' W 001°18'510.2
2017-Aug-15 05:30N 50°23' W 001°22'510.5
2017-Aug-15 05:00N 50°19' W 001°27'815.1
2017-Aug-15 04:30N 50°12' W 001°33'816.8
2017-Aug-15 04:00N 50°05' W 001°41'917.2
2017-Aug-15 03:30N 49°58' W 001°48'917.7
2017-Aug-15 03:00N 49°51' W 001°55'1918.0
2017-Aug-15 01:59N 49°34' W 002°08'1017.7
2017-Aug-15 01:23N 49°28' W 002°21'612.9
2017-Aug-15 00:57N 49°27' W 002°30'22 3.7
2017-Aug-14 18:49N 49°11' W 002°07'711.0
2017-Aug-14 18:10N 49°10' W 002°18'319.2
2017-Aug-14 18:00N 49°13' W 002°20'2 3.0
2017-Aug-14 17:22N 49°15' W 002°22'4 6.1
2017-Aug-14 16:38N 49°19' W 002°19'1212.2
2017-Aug-14 15:39N 49°30' W 002°12'311.7
2017-Aug-14 15:22N 49°33' W 002°10'911.3
2017-Aug-14 14:33N 49°42' W 002°05'010.5
2017-Aug-14 14:30N 49°42' W 002°05'510.1
2017-Aug-14 14:00N 49°46' W 002°00'5 9.5
2017-Aug-14 13:30N 49°49' W 001°54'5 9.3
2017-Aug-14 13:01N 49°52' W 001°49'5 9.8
2017-Aug-14 12:31N 49°56' W 001°44'510.0
2017-Aug-14 12:01N 49°60' W 001°40'714.4
2017-Aug-14 11:30N 50°06' W 001°35'815.9
2017-Aug-14 11:00N 50°13' W 001°29'816.1
2017-Aug-14 10:30N 50°21' W 001°23'816.3
2017-Aug-14 10:00N 50°27' W 001°16'816.4
2017-Aug-14 09:31N 50°34' W 001°08'816.5
2017-Aug-14 09:01N 50°40' W 001°01'714.3
2017-Aug-14 08:30N 50°47' W 001°06'2 4.2
2017-Aug-14 08:00N 50°49' W 001°06'0 0.0
2017-Aug-14 07:30N 50°49' W 001°06'0 0.0
2017-Aug-14 07:00N 50°49' W 001°06'0 0.0
2017-Aug-14 06:30N 50°49' W 001°06'0 0.0
2017-Aug-14 06:00N 50°49' W 001°06'0 0.0
2017-Aug-14 05:30N 50°49' W 001°06'1 2.8
2017-Aug-14 05:00N 50°48' W 001°07'714.2
2017-Aug-14 04:30N 50°41' W 001°03'815.5
2017-Aug-14 04:00N 50°35' W 001°10'713.7
2017-Aug-14 03:30N 50°29' W 001°17'612.1
2017-Aug-14 03:00N 50°24' W 001°20'612.6
2017-Aug-14 02:30N 50°18' W 001°24'613.0
2017-Aug-14 02:00N 50°13' W 001°30'612.8
2017-Aug-14 01:30N 50°08' W 001°37'713.0
2017-Aug-14 01:00N 50°03' W 001°44'713.2
2017-Aug-14 00:30N 49°58' W 001°50'713.4
2017-Aug-14 00:00N 49°52' W 001°55'1015.3
2017-Aug-13 23:21N 49°43' W 002°02'615.6
2017-Aug-13 22:58N 49°38' W 002°06'713.9
2017-Aug-13 22:27N 49°31' W 002°11'613.4
2017-Aug-13 22:01N 49°26' W 002°15'815.9
2017-Aug-13 21:31N 49°18' W 002°19'816.3
2017-Aug-13 21:01N 49°10' W 002°18'713.8
2017-Aug-13 20:30N 49°11' W 002°07'0 0.0
2017-Aug-13 19:31N 49°11' W 002°07'0 0.0
2017-Aug-13 19:30N 49°11' W 002°07'0 0.0
2017-Aug-13 18:24N 49°11' W 002°07'2 4.3
2017-Aug-13 17:51N 49°10' W 002°10'716.0
2017-Aug-13 17:23N 49°11' W 002°21'716.0
2017-Aug-13 16:57N 49°17' W 002°26'716.5
2017-Aug-13 16:30N 49°24' W 002°29'3 2.9
2017-Aug-13 15:19N 49°27' W 002°32'0 0.2
2017-Aug-13 15:00N 49°27' W 002°32'610.6
2017-Aug-13 14:29N 49°28' W 002°23'918.4
2017-Aug-13 14:00N 49°33' W 002°12'817.1
2017-Aug-13 13:31N 49°40' W 002°06'816.2
2017-Aug-13 13:01N 49°47' W 001°60'815.1
2017-Aug-13 12:31N 49°53' W 001°52'815.3
2017-Aug-13 12:00N 49°59' W 001°45'815.7
2017-Aug-13 11:30N 50°07' W 001°40'815.4
2017-Aug-13 11:01N 50°13' W 001°33'815.4
2017-Aug-13 10:31N 50°18' W 001°25'815.8
2017-Aug-13 10:00N 50°24' W 001°16'816.3
2017-Aug-13 09:30N 50°31' W 001°10'816.4
2017-Aug-13 09:00N 50°38' W 001°02'714.8
2017-Aug-13 08:30N 50°45' W 001°05'4 8.0
2017-Aug-13 08:00N 50°49' W 001°06'0 0.0
2017-Aug-13 07:30N 50°49' W 001°06'0 0.0
2017-Aug-13 07:00N 50°49' W 001°06'0 0.0
2017-Aug-13 06:30N 50°49' W 001°06'0 0.0
2017-Aug-13 06:01N 50°49' W 001°06'0 0.0
2017-Aug-13 05:30N 50°49' W 001°06'2 3.3
2017-Aug-13 05:00N 50°47' W 001°07'713.5
2017-Aug-13 04:30N 50°41' W 001°03'714.7
2017-Aug-13 04:01N 50°35' W 001°10'712.0
2017-Aug-13 03:25N 50°29' W 001°17'910.4
2017-Aug-13 02:36N 50°22' W 001°24'111.2
2017-Aug-13 02:29N 50°21' W 001°26'611.4
2017-Aug-13 01:59N 50°17' W 001°31'612.6
2017-Aug-13 01:30N 50°12' W 001°36'713.4
2017-Aug-13 01:00N 50°06' W 001°42'713.5
2017-Aug-13 00:31N 50°01' W 001°48'612.6
2017-Aug-13 00:01N 49°55' W 001°52'713.1
2017-Aug-12 23:30N 49°49' W 001°57'20 2.2
2017-Aug-12 14:25N 49°33' W 002°13'1518.4
2017-Aug-12 13:35N 49°46' W 002°02'117.4
2017-Aug-12 13:30N 49°47' W 002°01'816.9
2017-Aug-12 13:01N 49°55' W 001°55'815.9
2017-Aug-12 12:30N 50°02' W 001°49'815.1
2017-Aug-12 12:00N 50°07' W 001°41'714.6
2017-Aug-12 11:31N 50°12' W 001°33'814.9
2017-Aug-12 10:58N 50°19' W 001°25'714.9
2017-Aug-12 10:30N 50°24' W 001°18'814.9
2017-Aug-12 10:00N 50°30' W 001°11'714.8
2017-Aug-12 09:30N 50°36' W 001°04'714.5
2017-Aug-12 09:00N 50°43' W 001°02'612.3
2017-Aug-12 08:30N 50°49' W 001°07'1 1.1
2017-Aug-12 08:00N 50°49' W 001°06'0 0.0
2017-Aug-12 07:31N 50°49' W 001°06'0 0.0
2017-Aug-12 07:00N 50°49' W 001°06'0 0.0
2017-Aug-12 06:30N 50°49' W 001°06'0 0.0
2017-Aug-12 06:00N 50°49' W 001°06'0 0.0
2017-Aug-12 05:30N 50°49' W 001°06'2 3.3
2017-Aug-12 05:01N 50°47' W 001°07'713.2
2017-Aug-12 04:30N 50°41' W 001°03'714.6
2017-Aug-12 04:01N 50°35' W 001°09'4 8.9
2017-Aug-12 03:31N 50°31' W 001°13'13 9.2
2017-Aug-12 02:08N 50°21' W 001°24'111.4
2017-Aug-12 02:01N 50°20' W 001°25'612.9
2017-Aug-12 01:30N 50°14' W 001°29'713.7
2017-Aug-12 01:00N 50°08' W 001°35'714.8
2017-Aug-12 00:31N 50°02' W 001°42'918.9
2017-Aug-12 00:01N 49°54' W 001°50'1020.1
2017-Aug-11 23:30N 49°46' W 001°59'1320.3
2017-Aug-11 22:51N 49°34' W 002°08'1619.9
2017-Aug-11 22:03N 49°19' W 002°18'519.2
2017-Aug-11 21:48N 49°15' W 002°20'715.9
2017-Aug-11 21:20N 49°10' W 002°13'1 0.2
2017-Aug-11 18:20N 49°10' W 002°13'717.9
2017-Aug-11 17:58N 49°14' W 002°21'13 4.4
2017-Aug-11 15:05N 49°26' W 002°29'216.7
2017-Aug-11 14:59N 49°26' W 002°27'2718.5
2017-Aug-11 13:30N 49°48' W 002°01'917.4
2017-Aug-11 13:01N 49°55' W 001°53'816.5
2017-Aug-11 12:31N 50°01' W 001°45'815.6
2017-Aug-11 12:00N 50°06' W 001°36'815.0
2017-Aug-11 11:30N 50°12' W 001°28'815.6
2017-Aug-11 11:00N 50°18' W 001°22'1015.3
2017-Aug-11 10:21N 50°27' W 001°13'515.0
2017-Aug-11 10:00N 50°31' W 001°09'714.7
2017-Aug-11 09:30N 50°37' W 001°03'714.2
2017-Aug-11 09:01N 50°44' W 001°04'4 8.8
2017-Aug-11 08:31N 50°49' W 001°06'0 0.1
2017-Aug-11 08:01N 50°49' W 001°06'0 0.0
2017-Aug-11 07:31N 50°49' W 001°06'0 0.0
2017-Aug-11 07:00N 50°49' W 001°06'0 0.0
2017-Aug-11 06:30N 50°49' W 001°06'0 0.0
2017-Aug-11 06:01N 50°49' W 001°06'0 0.0
2017-Aug-11 05:30N 50°49' W 001°06'2 3.2
2017-Aug-11 05:01N 50°47' W 001°07'713.3
2017-Aug-11 04:31N 50°41' W 001°03'714.3
2017-Aug-11 04:00N 50°35' W 001°09'612.0
2017-Aug-11 03:30N 50°30' W 001°14'510.8
2017-Aug-11 03:00N 50°26' W 001°19'510.3
2017-Aug-11 02:30N 50°22' W 001°24'510.3
2017-Aug-11 02:00N 50°17' W 001°28'611.7
2017-Aug-11 01:30N 50°12' W 001°33'612.5
2017-Aug-11 01:01N 50°07' W 001°38'815.3
2017-Aug-11 00:31N 50°00' W 001°44'917.7
2017-Aug-11 00:01N 49°53' W 001°51'3819.0
2017-Aug-10 21:59N 49°19' W 002°19'11 2.3
2017-Aug-10 17:24N 49°26' W 002°30'1 0.8
2017-Aug-10 15:37N 49°27' W 002°32'0 2.4
2017-Aug-10 15:30N 49°27' W 002°31'2 4.7
2017-Aug-10 15:00N 49°26' W 002°29'2718.7
2017-Aug-10 13:35N 49°46' W 002°02'219.9
2017-Aug-10 13:31N 49°47' W 002°01'1019.0
2017-Aug-10 13:00N 49°55' W 001°53'918.0
2017-Aug-10 12:30N 50°02' W 001°45'917.5
2017-Aug-10 12:00N 50°10' W 001°38'1816.5
2017-Aug-10 10:55N 50°24' W 001°20'716.0
2017-Aug-10 10:30N 50°29' W 001°15'815.3
2017-Aug-10 10:00N 50°36' W 001°08'715.0
2017-Aug-10 09:31N 50°43' W 001°03'612.8
2017-Aug-10 09:00N 50°49' W 001°06'0 1.0
2017-Aug-10 08:31N 50°49' W 001°06'0 0.0
2017-Aug-10 08:00N 50°49' W 001°06'0 0.0
2017-Aug-10 07:31N 50°49' W 001°06'0 0.0
2017-Aug-10 07:00N 50°49' W 001°06'0 0.0
2017-Aug-10 06:31N 50°49' W 001°06'0 0.0
2017-Aug-10 06:01N 50°49' W 001°06'0 0.0
2017-Aug-10 05:30N 50°49' W 001°06'2 3.9
2017-Aug-10 05:01N 50°47' W 001°06'612.9
2017-Aug-10 04:31N 50°41' W 001°01'713.1
2017-Aug-10 04:00N 50°36' W 001°05'5 9.3
2017-Aug-10 03:30N 50°32' W 001°10'5 8.3
2017-Aug-10 02:56N 50°28' W 001°15'4 8.5
2017-Aug-10 02:26N 50°26' W 001°21'5 9.1
2017-Aug-10 01:53N 50°22' W 001°24'410.1
2017-Aug-10 01:30N 50°18' W 001°25'713.0
2017-Aug-10 01:00N 50°12' W 001°30'815.4
2017-Aug-10 00:30N 50°05' W 001°34'815.8
2017-Aug-10 00:01N 49°59' W 001°42'816.3
2017-Aug-09 23:30N 49°53' W 001°50'917.5
2017-Aug-09 23:01N 49°46' W 001°59'1417.6
2017-Aug-09 22:13N 49°34' W 002°08'4 0.5
2017-Aug-09 13:56N 49°32' W 002°14'1520.5
2017-Aug-09 13:12N 49°46' W 002°04'419.2
2017-Aug-09 13:00N 49°49' W 002°03'714.4
2017-Aug-09 12:31N 49°54' W 001°55'918.0
2017-Aug-09 12:00N 50°01' W 001°46'917.5
2017-Aug-09 11:31N 50°09' W 001°39'2316.6
2017-Aug-09 10:08N 50°27' W 001°17'615.7
2017-Aug-09 09:46N 50°32' W 001°12'415.4
2017-Aug-09 09:30N 50°35' W 001°09'815.4
2017-Aug-09 09:01N 50°42' W 001°03'714.2
2017-Aug-09 08:31N 50°48' W 001°07'1 1.9
2017-Aug-09 08:01N 50°49' W 001°06'0 0.0
2017-Aug-09 07:31N 50°49' W 001°06'0 0.0
2017-Aug-09 07:01N 50°49' W 001°06'0 0.0
2017-Aug-09 06:31N 50°49' W 001°06'0 0.0
2017-Aug-09 06:01N 50°49' W 001°06'0 0.0
2017-Aug-09 05:30N 50°49' W 001°06'2 3.7
2017-Aug-09 05:01N 50°47' W 001°06'713.2
2017-Aug-09 04:30N 50°41' W 001°01'714.8
2017-Aug-09 04:00N 50°35' W 001°08'611.0
2017-Aug-09 03:29N 50°30' W 001°12'1110.6
2017-Aug-09 02:26N 50°22' W 001°23'510.5
2017-Aug-09 02:00N 50°18' W 001°26'815.0
2017-Aug-09 01:30N 50°11' W 001°32'815.5
2017-Aug-09 01:00N 50°05' W 001°39'815.9
2017-Aug-09 00:30N 49°58' W 001°46'816.5
2017-Aug-09 00:00N 49°51' W 001°52'21 2.0
2017-Aug-08 13:38N 49°34' W 002°10'1520.4
2017-Aug-08 12:54N 49°48' W 002°02'719.0
2017-Aug-08 12:30N 49°53' W 001°54'918.3
2017-Aug-08 12:00N 50°01' W 001°46'917.8
2017-Aug-08 11:30N 50°08' W 001°38'  

Dump ship's entire track history